Flight Track Log - Related Links

Times and Time Zones

All times are in EDT time to prevent confusion due to time zone crossing. See the N93XP flight status page for this flight to view local times or setup timezone preferences in your user account.

Time Position Orientation Groundspeed Altitude Reporting Facility
EDT Latitude Longitude Course Direction KTS MPH feet Rate Location/Type
Sat 12:41:49 PM 42.1333 -87.9167 56° Northeast 178 205 1,800  Level Chicago TRACON
Sat 12:42:43 PM 42.1667 -87.8500 56° Northeast 251 289 4,400 2,838 Climbing Chicago TRACON
Sat 12:43:03 PM 42.1719 -87.8381 59° Northeast 253 291 5,300 2,780 Climbing Chicago Center
Sat 12:44:05 PM 42.1750 -87.7453 87° East 249 287 8,200 2,585 Climbing Chicago Center
Sat 12:45:06 PM 42.1628 -87.6356 99° East 286 329 10,600 2,293 Climbing Chicago Center
Sat 12:46:08 PM 42.1522 -87.5125 97° East 322 371 12,900 2,371 Climbing Chicago Center
Sat 12:47:10 PM 42.1383 -87.3553 97° East 350 403 15,500 2,244 Climbing Chicago Center
Sat 12:48:11 PM 42.1258 -87.2167 97° East 367 422 17,500 1,805 Climbing Chicago Center
Sat 12:49:13 PM 42.1142 -87.0708 96° East 386 444 19,200 1,597 Climbing Chicago Center
Sat 12:50:15 PM 42.1181 -86.9178 88° East 408 470 20,800 1,597 Climbing Chicago Center
Sat 12:51:17 PM 42.1228 -86.7614 88° East 417 480 22,500 1,645 Climbing Chicago Center
Sat 12:52:19 PM 42.1300 -86.5931 87° East 419 482 24,200 1,415 Climbing Chicago Center
Sat 12:53:20 PM 42.1344 -86.4325 88° East 426 490 25,400 1,268 Climbing Chicago Center
Sat 12:54:22 PM 42.1400 -86.2678 87° East 438 504 26,800 774 Climbing Chicago Center
Sat 12:55:24 PM 42.1439 -86.0950 88° East 455 524 27,000 97 Climbing Chicago Center
Sat 12:56:26 PM 42.1378 -85.8869 92° East 493 567 27,000  Level Chicago Center
Sat 12:57:27 PM 42.1322 -85.6961 92° East 509 586 27,000  Level Chicago Center
Sat 12:58:30 PM 42.1261 -85.5036 92° East 518 596 27,000  Level Chicago Center
Sat 12:59:34 PM 42.1225 -85.2731 91° East 513 590 27,000  Level Cleveland Center
Sat 01:00:34 PM 42.1158 -85.0764 93° East 519 597 27,000  Level Cleveland Center
Sat 01:01:34 PM 42.1106 -84.8914 92° East 514 592 27,000  Level Cleveland Center
Sat 01:02:34 PM 42.1031 -84.6975 93° East 514 592 27,000 -50 Level Cleveland Center
Sat 01:03:34 PM 42.0950 -84.5067 93° East 514 592 26,900 -350 Descending Cleveland Center
Sat 01:04:34 PM 42.0867 -84.3186 93° East 514 592 26,300 -550 Descending Cleveland Center
Sat 01:05:34 PM 42.0756 -84.1472 95° East 509 586 25,800 -600 Descending Cleveland Center
Sat 01:06:34 PM 42.0667 -83.9594 94° East 509 586 25,100 -750 Descending Cleveland Center
Sat 01:07:34 PM 42.0594 -83.7744 93° East 504 580 24,300 -550 Descending Cleveland Center
Sat 01:08:34 PM 42.0519 -83.5922 93° East 493 567 24,000 -150 Descending Cleveland Center
Sat 01:09:34 PM 42.0381 -83.3931 95° East 483 556 24,000 -200 Level Cleveland Center
Sat 01:10:34 PM 42.0214 -83.2133 97° East 483 556 23,600 -500 Descending Cleveland Center
Sat 01:11:34 PM 42.0044 -83.0367 97° East 483 556 23,000 -300 Descending Cleveland Center
Sat 01:12:34 PM 41.9894 -82.8600 96° East 483 556 23,000  Level Cleveland Center
Sat 01:13:29 PM 41.9717 -82.6944 98° East 487 560 23,000 -433 Level Cleveland Center
Sat 01:14:11 PM 41.9572 -82.5742 99° East 484 557 22,300 -1,385 Descending Cleveland Center
Sat 01:14:34 PM 41.9522 -82.5014 95° East 483 556 21,500 -2,164 Descending Cleveland Center
Sat 01:15:12 PM 41.9414 -82.4033 98° East 469 540 20,100 -2,200 Descending Cleveland Center
Sat 01:15:34 PM 41.9342 -82.3333 98° East 478 550 19,300 -2,364 Descending Cleveland Center
Sat 01:16:18 PM 41.9214 -82.2128 98° East 438 504 17,500 -2,300 Descending Cleveland Center
Sat 01:16:34 PM 41.9178 -82.1708 97° East 454 522 17,000 -2,073 Descending Cleveland Center
Sat 01:17:13 PM 41.9086 -82.0786 98° East 434 499 15,600 -2,000 Descending Cleveland Center
Sat 01:17:34 PM 41.9028 -82.0311 99° East 431 496 15,000 -2,222 Descending Cleveland Center
Sat 01:18:07 PM 41.8936 -81.9333 97° East 413 475 13,600 -2,300 Descending Cleveland Center
Sat 01:18:34 PM 41.8858 -81.8800 101° East 414 476 12,700 -2,291 Descending Cleveland Center
Sat 01:19:02 PM 41.8783 -81.7992 97° East 394 453 11,500 -2,000 Descending Cleveland Center
Sat 01:19:34 PM 41.8689 -81.7264 100° East 396 456 10,700 -1,600 Descending Cleveland Center
Sat 01:20:02 PM 41.8653 -81.6706 95° East 335 386 9,900 -1,500 Descending Cleveland Center
Sat 01:20:34 PM 41.8553 -81.6061 102° East 349 402 9,200 -1,522 Descending Cleveland Center
Sat 01:21:09 PM 41.8517 -81.5506 95° East 286 329 8,200 -1,700 Descending Cleveland Center
Sat 01:21:34 PM 41.8458 -81.5003 99° East 305 351 7,500 -1,672 Descending Cleveland Center
Sat 01:22:10 PM 41.8381 -81.4417 100° East 267 307 6,500 -1,700 Descending Cleveland Center
Sat 01:22:34 PM 41.8339 -81.4053 99° East 269 310 5,800 -1,700 Descending Cleveland Center
Sat 01:23:10 PM 41.8031 -81.3742 143° Southeast 238 274 4,800 -1,608 Descending Cleveland Center
Sat 01:24:11 PM 41.7406 -81.3456 161° South 237 273 3,200 -885 Descending Cleveland Center
Sat 01:25:12 PM 41.6864 -81.3506 184° South 178 205 3,000 -99 Descending Cleveland Center
Sat 01:26:12 PM 41.6528 -81.3947 224° Southwest 167 192 3,000  Level Cleveland Center
Sat 01:27:13 PM 41.6272 -81.4497 238° Southwest 169 194 3,000 50 Level Cleveland Center
Sat 01:28:13 PM 41.6061 -81.4967 239° Southwest 162 186 3,100  Climbing Cleveland Center
Sat 01:29:14 PM 41.5850 -81.5436 239° Southwest 140 161 3,000 -443 Descending Cleveland Center
Sat 01:30:15 PM 41.5636 -81.5878 237° Southwest 128 147 2,200 -744 Descending Cleveland Center
Sat 01:31:15 PM 41.5444 -81.6264 236° Southwest 118 136 1,500 -626 Descending Cleveland Center
Sat 01:32:10 PM 41.5275 -81.6592 235° Southwest 121 139 1,000 -545 Descending Cleveland Center
Sat 01:34:00 PM 41.5167 -81.6667 240° Southwest  Level FlightAware Approximate

Login

Don't have an account? Register now (free) for customized features, flight alerts, and more!